Hauptseite
METAR-TAF:

METAR-TAF

Flughäfen :

Militärflugplatz Cervia

Cervia, Italien

Breite: 44-13N, Länge: 012-18E, Höhe: 6 m

Beobachtung

Neuester Wetterbericht von vor 37 Minuten, um 20:55 UTC
Wind 5 kt aus Südwest
Temperatur -1°C
Luftfeuchtigkeit 86%
Luftdruck 1020 hPa
Sichtweite 10 km oder mehr
keine Wolken unter 1500 m und keine Kumulonimbus oder Gewitterwolken

METAR: LIPC 152055Z 23005KT CAVOK M01/M03 Q1020 RMK SKC VIS MIN 9999 WIND THR11 23005KT WIND THR29 24004KT BLU

Zeit: 22:32 (21:32 UTC)

Prognose

Neuester Wetterbericht von vor 1 Stunde und 32 Minuten, um 20:00 UTC
Gültige Prognose vom 15 um 21 UTC bis 16 um 06 UTC
Wind 13 kt aus West
Sichtweite 10 km oder mehr
Aufgelockert bewölkt in der Höhe von 4000 ft

TAF: LIPC 152000Z 1521/1606 28013KT 9999 SCT040

Wetterbeobachtungen und Prognosen von mehr als 4000 Flughäfen (METAR und TAF Bericht).

Die verfügbaren Stationen werden durch gelbe und rote Markierungen auf der Karte dargestellt.

Führen Sie die Maus auf sie, um den Namen der Station zu sehen.

Darauf klicken, um die Beobachtung von Wetterbeobachtungen und Prognosen zu sehen.

Um die Karte zu ändern : klicken Sie auf den grünen Tasten mit einem schwarzen Kreuz Zum Vergrößern, auf den grünen Button mit einem Gedankenstrich zu verkleinern, oder auf die grünen Pfeile für benachbarte Karten.


METAR-TAF: